Time;durP1;ratioP1;P1;durP2;ratioP2;P2;SDS_P1;SDS_P2;PMS_P1;PMS_P2;Temp;Humidity;BMP_temperature;BMP_pressure;BME280_temperature;BME280_humidity;BME280_pressure;Samples;Min_cycle;Max_cycle;Signal;HPM_P1;HPM_P2
2022/07/24 00:00:14;;;;;;;1.90;1.13;;;15.10;98.20;15.10;101005.00;;;;4957671;28;108778;-63
2022/07/24 00:02:40;;;;;;;1.75;1.52;;;15.10;98.40;15.00;101002.00;;;;4958435;28;89297;-63
2022/07/24 00:05:06;;;;;;;1.63;1.47;;;15.00;98.60;15.00;100996.00;;;;4957438;28;110930;-63
2022/07/24 00:07:34;;;;;;;2.05;1.63;;;14.90;98.70;14.90;101004.00;;;;4939570;28;91864;-63
2022/07/24 00:10:01;;;;;;;2.05;1.42;;;14.90;99.00;14.90;101001.00;;;;4958485;28;88754;-63
2022/07/24 00:12:26;;;;;;;1.67;1.17;;;14.80;99.10;14.90;100999.00;;;;4958766;28;88735;-63
2022/07/24 00:14:52;;;;;;;1.30;1.20;;;14.80;99.30;14.80;100999.00;;;;4958623;28;89113;-63
2022/07/24 00:17:18;;;;;;;1.83;1.40;;;14.80;99.40;14.80;101002.00;;;;4957404;28;107299;-63
2022/07/24 00:19:44;;;;;;;1.33;1.10;;;14.70;99.60;14.70;101004.00;;;;4956618;28;118702;-63
2022/07/24 00:22:10;;;;;;;2.17;1.53;;;14.70;99.70;14.70;101004.00;;;;4957397;28;118422;-63
2022/07/24 00:24:35;;;;;;;1.50;1.23;;;14.60;99.80;14.60;100991.00;;;;4958045;28;87636;-63
2022/07/24 00:27:01;;;;;;;2.00;1.20;;;14.60;99.90;14.60;100997.00;;;;4957225;28;108710;-63
2022/07/24 00:29:27;;;;;;;3.37;1.50;;;14.50;99.90;14.50;101004.00;;;;4960516;28;116831;-63
2022/07/24 00:31:53;;;;;;;1.50;1.33;;;14.50;99.90;14.50;101002.00;;;;4936655;28;88446;-63
2022/07/24 00:34:19;;;;;;;1.20;1.10;;;14.40;99.90;14.40;101011.00;;;;4937293;28;110088;-63
2022/07/24 00:36:44;;;;;;;1.60;1.50;;;14.40;99.90;14.30;101007.00;;;;4938680;28;90361;-63
2022/07/24 00:39:11;;;;;;;1.70;1.57;;;14.30;99.90;14.30;101017.00;;;;4937467;28;118027;-63
2022/07/24 00:41:37;;;;;;;1.63;1.53;;;14.30;99.90;14.20;101014.00;;;;4955250;28;103290;-63
2022/07/24 00:44:08;;;;;;;2.13;1.37;;;14.20;99.90;14.20;101012.00;;;;4958373;28;88451;-63
2022/07/24 00:46:39;;;;;;;1.63;1.47;;;14.20;99.90;14.20;101021.00;;;;4957925;28;87846;-63
2022/07/24 00:49:08;;;;;;;1.97;1.50;;;14.30;99.90;14.10;100999.00;;;;4958267;28;87766;-63
2022/07/24 00:51:34;;;;;;;1.53;1.30;;;14.10;99.90;14.10;101010.00;;;;4957748;28;87850;-64
2022/07/24 00:54:04;;;;;;;2.07;1.80;;;14.00;99.90;14.00;101000.00;;;;4957992;28;87725;-63
2022/07/24 00:56:30;;;;;;;1.60;1.23;;;14.00;99.90;13.90;101016.00;;;;4957445;28;100334;-63
2022/07/24 00:58:56;;;;;;;2.07;1.43;;;13.90;99.90;13.90;101016.00;;;;4956405;28;117562;-63
2022/07/24 01:01:21;;;;;;;2.20;1.60;;;13.90;99.90;13.90;101012.00;;;;4957314;28;114770;-63
2022/07/24 01:03:47;;;;;;;3.00;1.87;;;13.80;99.90;13.80;101010.00;;;;4956745;28;110460;-63
2022/07/24 01:06:14;;;;;;;1.83;1.40;;;13.80;99.90;13.80;101016.00;;;;4956740;28;109528;-63
2022/07/24 01:08:42;;;;;;;2.03;1.60;;;13.80;99.90;13.70;101013.00;;;;4957648;28;88894;-63
2022/07/24 01:11:10;;;;;;;1.17;1.07;;;13.70;99.90;13.70;101017.00;;;;4957703;28;89855;-63
2022/07/24 01:13:36;;;;;;;2.40;1.83;;;13.70;99.90;13.60;101017.00;;;;4956957;28;87843;-63
2022/07/24 01:16:02;;;;;;;1.97;1.83;;;13.60;99.90;13.60;101016.00;;;;4939354;28;87830;-63
2022/07/24 01:18:27;;;;;;;1.10;1.00;;;13.50;99.90;13.50;101022.00;;;;4955385;28;104644;-63
2022/07/24 01:20:55;;;;;;;2.10;1.87;;;13.50;99.90;13.40;101032.00;;;;4956610;28;117648;-63
2022/07/24 01:23:22;;;;;;;1.60;1.50;;;13.40;99.90;13.40;101017.00;;;;4957373;28;87972;-63
2022/07/24 01:25:48;;;;;;;2.33;1.57;;;13.40;99.90;13.40;101034.00;;;;4957471;28;86669;-63
2022/07/24 01:28:13;;;;;;;1.93;1.47;;;13.30;99.90;13.30;101038.00;;;;4955882;28;116455;-63
2022/07/24 01:30:39;;;;;;;2.90;1.97;;;13.30;99.90;13.30;101019.00;;;;4956420;28;115381;-63
2022/07/24 01:33:05;;;;;;;2.63;1.80;;;13.20;99.90;13.20;101025.00;;;;4955661;28;111248;-63
2022/07/24 01:35:31;;;;;;;2.47;1.83;;;13.20;99.90;13.20;101027.00;;;;4956786;28;108852;-62
2022/07/24 01:37:56;;;;;;;1.50;1.40;;;13.20;99.90;13.20;101029.00;;;;4956006;28;117566;-63
2022/07/24 01:40:23;;;;;;;1.23;1.13;;;13.10;99.90;13.10;101032.00;;;;4956441;28;117961;-63
2022/07/24 01:42:49;;;;;;;2.00;1.50;;;13.10;99.90;13.10;101029.00;;;;4957494;28;87773;-63
2022/07/24 01:45:15;;;;;;;2.93;2.10;;;13.00;99.90;13.00;101036.00;;;;4957315;28;87757;-62
2022/07/24 01:47:43;;;;;;;3.50;2.50;;;13.00;99.90;13.00;101031.00;;;;4955637;28;118783;-63
2022/07/24 01:50:12;;;;;;;2.33;2.07;;;13.00;99.90;13.00;101034.00;;;;4958349;28;88087;-63
2022/07/24 01:52:38;;;;;;;1.63;1.53;;;12.90;99.90;12.90;101031.00;;;;4958350;28;89076;-63
2022/07/24 01:55:05;;;;;;;1.77;1.63;;;12.90;99.90;12.90;101041.00;;;;4956190;28;108097;-64
2022/07/24 01:57:33;;;;;;;2.60;2.13;;;12.90;99.90;12.90;101036.00;;;;4955125;28;106505;-63
2022/07/24 02:00:00;;;;;;;1.60;1.43;;;12.90;99.90;12.80;101041.00;;;;4957085;28;89470;-63
2022/07/24 02:02:27;;;;;;;1.90;1.70;;;12.80;99.90;12.70;101039.00;;;;4938610;28;87852;-62
2022/07/24 02:04:53;;;;;;;2.00;1.57;;;12.70;99.90;12.70;101037.00;;;;4957151;28;87858;-62
2022/07/24 02:07:19;;;;;;;7.43;2.03;;;12.70;99.90;12.60;101043.00;;;;4956261;28;111922;-63
2022/07/24 02:09:45;;;;;;;2.07;1.87;;;12.60;99.90;12.60;101041.00;;;;4956189;28;117431;-63
2022/07/24 02:12:11;;;;;;;2.60;1.50;;;12.50;99.90;12.60;101041.00;;;;4957308;28;87645;-63
2022/07/24 02:14:36;;;;;;;3.60;1.60;;;12.50;99.90;12.50;101049.00;;;;4957020;28;96268;-62
2022/07/24 02:17:03;;;;;;;2.20;2.00;;;12.50;99.90;12.50;101063.00;;;;4955236;28;117708;-63
2022/07/24 02:19:29;;;;;;;5.57;2.10;;;12.50;99.90;12.50;101059.00;;;;4957239;28;87556;-63
2022/07/24 02:21:55;;;;;;;3.23;2.10;;;12.50;99.90;12.50;101062.00;;;;4937826;28;98433;-63
2022/07/24 02:24:22;;;;;;;2.67;2.03;;;12.50;99.90;12.50;101060.00;;;;4956108;28;108852;-63
2022/07/24 02:26:48;;;;;;;2.17;1.67;;;12.40;99.90;12.40;101062.00;;;;4956108;28;101544;-63
2022/07/24 02:29:14;;;;;;;4.37;2.27;;;12.40;99.90;12.40;101066.00;;;;4955850;28;109125;-63
2022/07/24 02:31:40;;;;;;;2.80;2.13;;;12.40;99.90;12.40;101066.00;;;;4959413;28;99580;-63
2022/07/24 02:34:05;;;;;;;1.87;1.77;;;12.40;99.90;12.40;101066.00;;;;4959350;28;108916;-63
2022/07/24 02:36:31;;;;;;;1.90;1.80;;;12.40;99.90;12.40;101068.00;;;;4959073;28;120629;-63
2022/07/24 02:38:57;;;;;;;1.97;1.73;;;12.40;99.90;12.30;101072.00;;;;4959695;28;117378;-62
2022/07/24 02:41:22;;;;;;;2.13;1.50;;;12.40;99.90;12.30;101073.00;;;;4959235;28;110582;-63
2022/07/24 02:43:48;;;;;;;2.93;1.70;;;12.30;99.90;12.30;101071.00;;;;4959232;28;109028;-63
2022/07/24 02:46:14;;;;;;;2.57;2.00;;;12.30;99.90;12.30;101072.00;;;;4959103;28;111284;-63
2022/07/24 02:48:40;;;;;;;3.30;2.23;;;12.20;99.90;12.20;101081.00;;;;4959455;28;89803;-63
2022/07/24 02:51:05;;;;;;;2.80;1.73;;;12.20;99.90;12.20;101078.00;;;;4959388;28;107935;-63
2022/07/24 02:53:31;;;;;;;1.93;1.83;;;12.20;99.90;12.10;101074.00;;;;4960028;28;87874;-63
2022/07/24 02:55:57;;;;;;;2.83;2.43;;;12.20;99.90;12.10;101072.00;;;;4959533;28;88085;-62
2022/07/24 02:58:23;;;;;;;1.83;1.70;;;12.10;99.90;12.10;101077.00;;;;4959137;28;88457;-63
2022/07/24 03:00:49;;;;;;;1.60;1.50;;;12.10;99.90;12.10;101073.00;;;;4959470;28;97058;-62
2022/07/24 03:03:15;;;;;;;4.40;2.23;;;12.00;99.90;12.00;101078.00;;;;4960443;28;87261;-62
2022/07/24 03:05:40;;;;;;;4.50;2.20;;;12.00;99.90;12.00;101065.00;;;;4958679;28;117626;-63
2022/07/24 03:08:06;;;;;;;1.83;1.67;;;12.00;99.90;12.00;101072.00;;;;4958220;28;116934;-63
2022/07/24 03:10:32;;;;;;;3.20;2.33;;;12.00;99.90;11.90;101078.00;;;;4958413;28;109497;-63
2022/07/24 03:12:58;;;;;;;1.57;1.33;;;11.90;99.90;11.90;101079.00;;;;4959261;28;94643;-63
2022/07/24 03:15:23;;;;;;;1.97;1.33;;;11.90;99.90;11.90;101071.00;;;;4958477;28;118301;-63
2022/07/24 03:17:55;;;;;;;1.57;1.47;;;11.90;99.90;11.80;101078.00;;;;4958710;28;117504;-63
2022/07/24 03:20:22;;;;;;;2.33;2.13;;;11.80;99.90;11.80;101075.00;;;;4958635;28;94697;-63
2022/07/24 03:22:49;;;;;;;1.33;1.23;;;11.80;99.90;11.80;101073.00;;;;4959584;28;87752;-63
2022/07/24 03:25:15;;;;;;;1.53;1.07;;;11.80;99.90;11.80;101069.00;;;;4959462;28;88425;-63
2022/07/24 03:27:41;;;;;;;2.50;1.87;;;11.80;99.90;11.80;101074.00;;;;4959592;28;88794;-63
2022/07/24 03:30:08;;;;;;;1.47;1.37;;;11.80;99.90;11.80;101071.00;;;;4959316;28;96697;-63
2022/07/24 03:32:36;;;;;;;1.33;1.23;;;11.80;99.90;11.80;101078.00;;;;4959553;28;87829;-63
2022/07/24 03:35:02;;;;;;;2.63;1.70;;;11.80;99.90;11.80;101074.00;;;;4957991;28;119496;-63
2022/07/24 03:37:28;;;;;;;1.33;1.10;;;11.80;99.90;11.80;101075.00;;;;4959140;28;106648;-63
2022/07/24 03:39:54;;;;;;;1.90;1.73;;;11.80;99.90;11.80;101066.00;;;;4941268;28;87624;-63
2022/07/24 03:42:20;;;;;;;2.57;1.70;;;11.80;99.90;11.80;101079.00;;;;4958842;28;88132;-63
2022/07/24 03:44:46;;;;;;;1.73;1.63;;;11.80;99.90;11.80;101070.00;;;;4959138;28;88306;-63
2022/07/24 03:47:11;;;;;;;2.60;1.53;;;11.80;99.90;11.80;101076.00;;;;4958649;28;116334;-63
2022/07/24 03:49:37;;;;;;;1.50;1.40;;;11.80;99.90;11.80;101081.00;;;;4958815;28;109904;-63
2022/07/24 03:52:03;;;;;;;3.20;1.33;;;11.70;99.90;11.80;101077.00;;;;4958747;28;108480;-63
2022/07/24 03:54:29;;;;;;;2.43;1.33;;;11.70;99.90;11.80;101080.00;;;;4958781;28;88632;-63
2022/07/24 03:56:55;;;;;;;2.60;1.93;;;11.70;99.90;11.80;101081.00;;;;4958436;28;117536;-63
2022/07/24 03:59:21;;;;;;;2.43;2.00;;;11.80;99.90;11.80;101079.00;;;;4958081;28;108354;-62
2022/07/24 04:01:47;;;;;;;1.63;1.53;;;11.80;99.90;11.80;101075.00;;;;4959855;28;88026;-63
2022/07/24 04:04:13;;;;;;;1.57;1.47;;;11.80;99.90;11.90;101082.00;;;;4958097;28;115560;-63
2022/07/24 04:06:40;;;;;;;2.53;2.03;;;11.90;99.90;11.90;101084.00;;;;4959117;28;87735;-63
2022/07/24 04:09:07;;;;;;;1.83;1.73;;;11.90;99.90;12.00;101080.00;;;;4959006;28;87804;-63
2022/07/24 04:11:33;;;;;;;2.17;1.93;;;11.90;99.90;12.00;101093.00;;;;4959534;28;87826;-63
2022/07/24 04:13:59;;;;;;;3.53;2.20;;;12.00;99.90;12.10;101088.00;;;;4958853;28;88100;-63
2022/07/24 04:16:25;;;;;;;3.37;2.13;;;12.00;99.90;12.10;101084.00;;;;4959344;28;87187;-63
2022/07/24 04:18:50;;;;;;;2.40;2.20;;;12.10;99.90;12.20;101091.00;;;;4958283;28;98751;-63
2022/07/24 04:21:16;;;;;;;3.73;2.97;;;12.20;99.90;12.30;101091.00;;;;4958032;28;108642;-63
2022/07/24 04:23:43;;;;;;;1.67;1.57;;;12.20;99.90;12.40;101106.00;;;;4958606;28;89495;-63
2022/07/24 04:26:08;;;;;;;2.63;1.97;;;12.30;99.90;12.40;101104.00;;;;4958963;28;89423;-63
2022/07/24 04:28:35;;;;;;;3.67;2.10;;;12.30;99.90;12.50;101107.00;;;;4959238;28;98220;-63
2022/07/24 04:31:00;;;;;;;3.00;2.77;;;12.50;99.90;12.60;101104.00;;;;4978809;28;89966;-63
2022/07/24 04:33:26;;;;;;;1.37;1.27;;;12.60;99.90;12.70;101106.00;;;;4978355;28;90055;-63
2022/07/24 04:35:52;;;;;;;3.00;2.17;;;12.70;99.90;12.80;101105.00;;;;4977789;28;117742;-63
2022/07/24 04:38:18;;;;;;;2.50;2.00;;;12.70;99.90;13.00;101099.00;;;;4970572;28;110021;-63
2022/07/24 04:40:43;;;;;;;2.03;1.83;;;12.90;99.90;13.10;101100.00;;;;4959393;28;86954;-63
2022/07/24 04:43:10;;;;;;;2.37;1.93;;;13.00;99.90;13.20;101110.00;;;;4957149;28;117049;-63
2022/07/24 04:45:35;;;;;;;2.13;1.27;;;13.10;99.90;13.40;101093.00;;;;4958084;28;92468;-63
2022/07/24 04:48:02;;;;;;;1.57;1.40;;;13.30;99.90;13.50;101089.00;;;;4958355;28;88801;-63
2022/07/24 04:50:28;;;;;;;1.90;1.70;;;13.40;99.90;13.60;101103.00;;;;4958785;28;87817;-63
2022/07/24 04:52:53;;;;;;;1.57;1.17;;;13.50;99.90;13.80;101091.00;;;;4956960;28;107353;-63
2022/07/24 04:55:19;;;;;;;1.93;1.73;;;13.70;99.90;13.90;101104.00;;;;4957602;28;103033;-63
2022/07/24 04:57:45;;;;;;;1.97;1.47;;;13.80;99.90;14.10;101101.00;;;;4957228;28;88529;-63
2022/07/24 05:00:13;;;;;;;2.23;1.37;;;14.00;99.90;14.30;101088.00;;;;4957446;28;108967;-63
2022/07/24 05:02:40;;;;;;;1.23;1.13;;;14.20;99.90;14.50;101096.00;;;;4954135;28;89120;-64
2022/07/24 05:05:06;;;;;;;1.93;1.70;;;14.30;99.90;14.70;101104.00;;;;4953742;28;117773;-63
2022/07/24 05:07:32;;;;;;;1.70;1.20;;;14.50;99.90;14.90;101106.00;;;;4954277;28;90253;-63
2022/07/24 05:09:58;;;;;;;1.77;1.40;;;14.70;99.90;15.00;101102.00;;;;4954224;28;87870;-63
2022/07/24 05:12:25;;;;;;;1.70;1.60;;;14.90;99.90;15.20;101107.00;;;;4946466;28;89990;-63
2022/07/24 05:14:51;;;;;;;1.57;1.20;;;15.10;99.90;15.40;101103.00;;;;4918792;28;91026;-63
2022/07/24 05:17:16;;;;;;;1.30;1.20;;;15.30;99.90;15.60;101107.00;;;;4954252;28;109680;-63
2022/07/24 05:19:42;;;;;;;1.20;1.10;;;15.40;99.90;15.80;101105.00;;;;4953744;28;109549;-63
2022/07/24 05:22:08;;;;;;;1.77;1.35;;;15.60;99.90;16.00;101110.00;;;;4953196;28;116818;-63
2022/07/24 05:24:33;;;;;;;0.95;0.93;;;15.80;99.90;16.20;101105.00;;;;4953616;28;88818;-63
2022/07/24 05:26:59;;;;;;;3.92;2.42;;;16.00;99.90;16.40;101099.00;;;;4953913;28;95063;-63
2022/07/24 05:29:25;;;;;;;3.67;1.67;;;16.20;99.90;16.60;101101.00;;;;4953448;28;107835;-64
2022/07/24 05:31:54;;;;;;;1.05;1.00;;;16.40;99.90;16.70;101104.00;;;;4936183;28;88181;-63
2022/07/24 05:34:22;;;;;;;1.55;1.17;;;16.60;99.90;17.00;101111.00;;;;4953738;28;88176;-63
2022/07/24 05:36:48;;;;;;;1.75;1.05;;;16.80;99.90;17.20;101095.00;;;;4935427;28;88781;-63
2022/07/24 05:39:14;;;;;;;1.20;1.10;;;17.00;99.90;17.40;101095.00;;;;4952854;28;108835;-64
2022/07/24 05:41:40;;;;;;;2.55;0.98;;;17.20;99.90;17.60;101099.00;;;;4953180;28;117753;-64
2022/07/24 05:44:06;;;;;;;1.10;1.00;;;17.40;99.90;17.80;101112.00;;;;4953594;28;88563;-64
2022/07/24 05:46:32;;;;;;;2.38;1.15;;;17.60;99.90;18.00;101103.00;;;;4954290;28;87865;-64
2022/07/24 05:48:57;;;;;;;2.17;1.05;;;17.80;99.90;18.20;101109.00;;;;4951412;28;95196;-64
2022/07/24 05:51:23;;;;;;;1.05;0.90;;;18.00;99.90;18.40;101103.00;;;;4951276;28;116655;-64
2022/07/24 05:53:49;;;;;;;0.73;0.70;;;18.20;99.90;18.60;101109.00;;;;4953183;28;117212;-64
2022/07/24 05:56:14;;;;;;;1.83;0.70;;;18.40;99.80;18.80;101120.00;;;;4953222;28;109828;-64
2022/07/24 05:58:40;;;;;;;0.70;0.70;;;18.60;99.20;19.00;101117.00;;;;4952787;28;104286;-64
2022/07/24 06:01:06;;;;;;;1.08;0.80;;;18.80;98.70;19.30;101124.00;;;;4952434;28;117961;-65
2022/07/24 06:03:31;;;;;;;0.55;0.55;;;19.10;98.20;19.50;101127.00;;;;4952628;28;113419;-64
2022/07/24 06:05:57;;;;;;;1.05;0.95;;;19.30;97.70;19.80;101123.00;;;;4937943;28;87968;-64
2022/07/24 06:08:23;;;;;;;0.73;0.73;;;19.50;97.10;20.00;101128.00;;;;4966868;28;87877;-64
2022/07/24 06:10:49;;;;;;;1.02;0.88;;;19.80;96.50;20.30;101126.00;;;;4959661;28;96824;-65
2022/07/24 06:13:14;;;;;;;0.60;0.60;;;20.00;95.90;20.50;101120.00;;;;4958551;28;117192;-65
2022/07/24 06:15:40;;;;;;;0.70;0.70;;;20.20;94.90;20.70;101119.00;;;;4961547;28;110636;-64
2022/07/24 06:18:05;;;;;;;1.55;0.70;;;20.40;94.20;20.90;101112.00;;;;4956588;28;107962;-65
2022/07/24 06:20:31;;;;;;;0.65;0.47;;;20.70;93.70;21.10;101112.00;;;;4953395;28;117831;-64
2022/07/24 06:22:57;;;;;;;1.10;0.88;;;20.90;93.10;21.40;101116.00;;;;4960232;28;110076;-65
2022/07/24 06:25:23;;;;;;;0.65;0.60;;;21.10;92.60;21.60;101114.00;;;;4952822;28;110680;-65
2022/07/24 06:27:50;;;;;;;0.50;0.50;;;21.40;91.90;21.80;101119.00;;;;4954517;28;87907;-65
2022/07/24 06:30:24;;;;;;;0.82;0.70;;;21.60;91.00;22.00;101126.00;;;;4954616;28;88309;-64
2022/07/24 06:32:52;;;;;;;0.88;0.73;;;21.80;90.20;22.20;101128.00;;;;4954231;28;87694;-64
2022/07/24 06:35:17;;;;;;;0.63;0.57;;;22.00;88.70;22.30;101112.00;;;;4953710;28;88024;-64
2022/07/24 06:37:43;;;;;;;0.40;0.40;;;22.20;86.80;22.50;101120.00;;;;4953184;28;110436;-64
2022/07/24 06:40:10;;;;;;;0.43;0.40;;;22.30;85.40;22.60;101121.00;;;;4952962;28;117743;-65
2022/07/24 06:42:36;;;;;;;1.15;0.63;;;22.40;84.50;22.80;101119.00;;;;4936416;28;88035;-64
2022/07/24 06:45:02;;;;;;;0.43;0.43;;;22.60;83.40;23.10;101122.00;;;;4953719;28;92949;-64
2022/07/24 06:47:28;;;;;;;0.77;0.50;;;22.80;81.90;23.30;101122.00;;;;4954126;28;87870;-65
2022/07/24 06:49:54;;;;;;;0.73;0.40;;;23.10;79.70;23.50;101129.00;;;;4953216;28;89327;-64
2022/07/24 06:52:20;;;;;;;0.65;0.40;;;23.20;78.00;23.70;101120.00;;;;4953119;28;98684;-64
2022/07/24 06:54:47;;;;;;;0.63;0.55;;;23.40;76.60;23.90;101126.00;;;;4952440;28;109423;-64
2022/07/24 06:57:13;;;;;;;0.35;0.20;;;23.60;75.60;24.10;101134.00;;;;4953286;28;108945;-64
2022/07/24 06:59:39;;;;;;;0.80;0.65;;;23.80;74.50;24.30;101132.00;;;;4954258;28;89330;-63
2022/07/24 07:02:05;;;;;;;5.20;0.70;;;24.10;73.20;24.60;101128.00;;;;4954158;28;105573;-63
2022/07/24 07:04:31;;;;;;;1.05;0.60;;;24.30;71.30;24.70;101127.00;;;;4953983;28;88065;-63
2022/07/24 07:06:57;;;;;;;0.38;0.30;;;24.40;69.70;24.90;101126.00;;;;4953545;28;102383;-64
2022/07/24 07:09:23;;;;;;;0.57;0.45;;;24.60;68.70;25.10;101119.00;;;;4953054;28;87997;-64
2022/07/24 07:11:48;;;;;;;0.80;0.50;;;24.80;67.60;25.20;101130.00;;;;4946295;28;87707;-64
2022/07/24 07:14:14;;;;;;;0.20;0.20;;;25.00;65.60;25.40;101128.00;;;;4950349;28;88461;-64
2022/07/24 07:16:40;;;;;;;0.85;0.50;;;25.20;65.00;25.60;101127.00;;;;4949850;28;107180;-64
2022/07/24 07:19:06;;;;;;;0.50;0.45;;;25.40;64.00;25.80;101129.00;;;;4951326;28;117468;-65
2022/07/24 07:21:31;;;;;;;0.30;0.30;;;25.50;63.00;26.00;101138.00;;;;4952785;28;88110;-65
2022/07/24 07:23:57;;;;;;;0.90;0.50;;;25.70;61.60;26.10;101129.00;;;;4943710;28;87829;-65
2022/07/24 07:26:23;;;;;;;0.57;0.50;;;25.80;60.20;26.20;101131.00;;;;4938559;28;87951;-65
2022/07/24 07:28:48;;;;;;;0.60;0.60;;;26.00;59.60;26.40;101124.00;;;;4951589;28;117622;-64
2022/07/24 07:31:14;;;;;;;0.75;0.45;;;26.20;59.10;26.60;101119.00;;;;4952644;28;117982;-65
2022/07/24 07:33:40;;;;;;;1.08;0.60;;;26.40;58.60;26.90;101129.00;;;;4952834;28;89834;-64
2022/07/24 07:36:08;;;;;;;1.13;0.57;;;26.60;57.90;27.20;101122.00;;;;4953652;28;87994;-65
2022/07/24 07:38:35;;;;;;;0.52;0.40;;;26.90;57.20;27.40;101114.00;;;;4953054;28;89706;-64
2022/07/24 07:41:01;;;;;;;0.28;0.28;;;27.10;56.50;27.60;101123.00;;;;4952790;28;89057;-64
2022/07/24 07:43:26;;;;;;;0.40;0.40;;;27.30;55.80;27.80;101116.00;;;;4952187;28;109922;-65
2022/07/24 07:45:52;;;;;;;2.58;0.35;;;27.50;54.90;27.90;101112.00;;;;4952410;28;105676;-65
2022/07/24 07:48:17;;;;;;;0.40;0.40;;;27.60;53.70;28.00;101117.00;;;;4947764;28;116438;-65
2022/07/24 07:50:43;;;;;;;0.20;0.20;;;27.70;53.20;28.10;101113.00;;;;4948943;28;116845;-65
2022/07/24 07:53:09;;;;;;;0.32;0.32;;;27.90;52.50;28.20;101110.00;;;;4952147;28;99801;-65
2022/07/24 07:55:35;;;;;;;1.02;0.30;;;27.90;51.60;28.20;101122.00;;;;4952483;28;94538;-64
2022/07/24 07:58:01;;;;;;;0.40;0.30;;;28.00;51.00;28.20;101123.00;;;;4952758;28;88571;-64
2022/07/24 08:00:27;;;;;;;0.28;0.28;;;28.00;49.80;28.10;101121.00;;;;4952426;28;88030;-65
2022/07/24 08:02:53;;;;;;;0.30;0.30;;;28.00;49.40;28.00;101132.00;;;;4952425;28;88418;-65
2022/07/24 08:05:18;;;;;;;0.40;0.20;;;27.90;49.30;28.10;101130.00;;;;4934381;28;88591;-65
2022/07/24 08:07:44;;;;;;;0.25;0.25;;;27.90;48.80;28.20;101136.00;;;;4951257;28;117558;-65
2022/07/24 08:10:11;;;;;;;0.47;0.20;;;28.00;49.00;28.30;101131.00;;;;4948141;28;88875;-64
2022/07/24 08:12:37;;;;;;;1.83;0.47;;;28.00;48.80;28.20;101133.00;;;;4952766;28;88097;-65
2022/07/24 08:15:03;;;;;;;0.50;0.20;;;28.10;47.10;28.10;101133.00;;;;4951655;28;94475;-65
2022/07/24 08:17:29;;;;;;;0.28;0.28;;;28.00;47.20;28.10;101138.00;;;;4951506;28;106255;-65
2022/07/24 08:19:54;;;;;;;0.13;0.13;;;28.00;47.00;28.00;101135.00;;;;4951971;28;104602;-64
2022/07/24 08:22:20;;;;;;;0.55;0.20;;;28.10;47.00;27.90;101135.00;;;;4951199;28;109991;-65
2022/07/24 08:24:46;;;;;;;0.20;0.20;;;27.80;46.30;27.90;101148.00;;;;4945972;28;87711;-65
2022/07/24 08:27:12;;;;;;;0.25;0.20;;;27.80;46.80;28.00;101137.00;;;;4951360;28;88966;-65
2022/07/24 08:29:37;;;;;;;0.40;0.15;;;27.80;46.50;28.00;101137.00;;;;4951962;28;88674;-65
2022/07/24 08:32:04;;;;;;;0.40;0.40;;;27.80;46.50;28.10;101140.00;;;;4951060;28;110564;-65
2022/07/24 08:34:29;;;;;;;0.20;0.20;;;28.00;46.70;28.30;101138.00;;;;4952158;28;88074;-65
2022/07/24 08:36:55;;;;;;;0.22;0.20;;;28.00;46.60;28.50;101138.00;;;;4950645;28;116854;-65
2022/07/24 08:39:21;;;;;;;0.10;0.10;;;28.20;46.60;28.80;101134.00;;;;4951219;28;116823;-66
2022/07/24 08:41:47;;;;;;;0.68;0.30;;;28.50;46.10;29.10;101137.00;;;;4952586;28;87685;-65
2022/07/24 08:44:12;;;;;;;0.88;0.10;;;28.70;45.70;29.30;101130.00;;;;4953263;28;87642;-65
2022/07/24 08:46:41;;;;;;;0.73;0.40;;;28.90;45.30;29.40;101131.00;;;;4952199;28;88011;-65
2022/07/24 08:49:12;;;;;;;0.10;0.10;;;29.10;45.00;29.50;101133.00;;;;4951598;28;110112;-65
2022/07/24 08:51:40;;;;;;;0.52;0.30;;;29.20;44.80;29.70;101127.00;;;;4950585;28;100392;-66
2022/07/24 08:54:07;;;;;;;0.03;0.00;;;29.40;44.60;29.80;101131.00;;;;4951781;28;87797;-66
2022/07/24 08:56:33;;;;;;;0.40;0.30;;;29.50;43.90;30.00;101128.00;;;;4951526;28;89064;-65
2022/07/24 08:59:00;;;;;;;0.45;0.30;;;29.70;43.30;30.00;101129.00;;;;4951517;28;88388;-65
2022/07/24 09:01:27;;;;;;;0.20;0.20;;;29.80;42.70;30.00;101127.00;;;;4951603;28;87534;-65
2022/07/24 09:03:52;;;;;;;0.28;0.28;;;29.70;42.40;29.90;101123.00;;;;4952224;28;87821;-66
2022/07/24 09:06:18;;;;;;;0.70;0.30;;;29.70;41.70;30.00;101127.00;;;;4950499;28;115826;-64
2022/07/24 09:09:00;;;;;;;0.30;0.20;;;29.70;41.80;30.00;101130.00;;;;4951904;28;88066;-65
2022/07/24 09:11:29;;;;;;;0.28;0.28;;;29.80;41.70;30.10;101126.00;;;;4951111;28;87829;-65
2022/07/24 09:16:47;;;;;;;0.10;0.10;;;30.00;41.80;30.50;101126.00;;;;4932995;28;89281;-66
2022/07/24 09:19:15;;;;;;;0.57;0.25;;;30.10;41.00;30.50;101127.00;;;;4951352;28;90748;-66
2022/07/24 09:21:42;;;;;;;0.43;0.22;;;30.20;41.10;30.60;101121.00;;;;4951511;28;87712;-66
2022/07/24 09:24:14;;;;;;;0.20;0.20;;;30.30;41.00;30.60;101123.00;;;;4931884;28;87650;-65
2022/07/24 09:26:44;;;;;;;0.40;0.30;;;30.30;40.60;30.60;101113.00;;;;4955426;28;106516;-65
2022/07/24 09:29:12;;;;;;;0.40;0.40;;;30.30;40.70;30.80;101112.00;;;;4950602;28;87939;-66
2022/07/24 09:32:01;;;;;;;0.40;0.25;;;30.40;40.70;31.00;101114.00;;;;4951114;28;87640;-65
2022/07/24 09:34:29;;;;;;;0.35;0.20;;;30.60;40.60;31.20;101110.00;;;;4950982;28;87038;-64
2022/07/24 09:37:06;;;;;;;0.17;0.17;;;30.80;40.30;31.40;101112.00;;;;4951196;28;88279;-66
2022/07/24 09:39:37;;;;;;;0.20;0.20;;;30.90;39.90;31.50;101108.00;;;;4949695;28;109711;-66
2022/07/24 09:42:05;;;;;;;0.30;0.30;;;31.10;39.40;31.60;101105.00;;;;4949549;28;99962;-66
2022/07/24 09:44:32;;;;;;;0.20;0.20;;;31.10;38.20;31.60;101113.00;;;;4950702;28;87815;-65
2022/07/24 09:47:02;;;;;;;0.10;0.10;;;31.20;38.70;31.70;101109.00;;;;4950534;28;88265;-65
2022/07/24 09:49:28;;;;;;;0.35;0.30;;;31.30;38.60;31.80;101110.00;;;;4950728;28;88610;-66
2022/07/24 09:52:18;;;;;;;1.17;0.22;;;31.30;38.50;31.90;101111.00;;;;4951158;28;87924;-65
2022/07/24 09:54:49;;;;;;;0.13;0.13;;;31.40;38.30;32.00;101112.00;;;;4950117;28;101392;-66
2022/07/24 09:57:29;;;;;;;0.25;0.20;;;31.50;38.10;32.10;101113.00;;;;4950885;28;88096;-66
2022/07/24 10:00:06;;;;;;;0.32;0.32;;;31.60;38.00;32.20;101103.00;;;;4950834;28;88765;-66
2022/07/24 10:02:34;;;;;;;0.20;0.10;;;31.70;37.40;32.30;101113.00;;;;4929314;28;87628;-65
2022/07/24 10:05:03;;;;;;;0.47;0.47;;;31.80;37.50;32.50;101111.00;;;;4948115;28;107707;-65
2022/07/24 10:07:30;;;;;;;0.20;0.20;;;31.90;37.40;32.60;101106.00;;;;4946784;28;90239;-66
2022/07/24 10:10:00;;;;;;;0.40;0.10;;;32.00;36.90;32.50;101113.00;;;;4949691;28;109271;-65
2022/07/24 10:12:31;;;;;;;0.20;0.20;;;32.10;36.40;32.50;101116.00;;;;4950493;28;87603;-65
2022/07/24 10:15:01;;;;;;;0.30;0.20;;;32.10;36.60;32.70;101107.00;;;;4950945;28;87722;-66
2022/07/24 10:18:05;;;;;;;0.10;0.08;;;32.20;36.60;32.90;101111.00;;;;4950237;28;88865;-66
2022/07/24 10:20:41;;;;;;;0.15;0.10;;;32.30;36.60;33.20;101115.00;;;;4930636;28;107285;-66
2022/07/24 10:23:08;;;;;;;0.20;0.20;;;32.50;36.50;33.40;101112.00;;;;4950377;28;87806;-66
2022/07/24 10:26:16;;;;;;;0.30;0.30;;;32.70;36.20;33.60;101102.00;;;;4951568;28;87090;-66
2022/07/24 10:28:44;;;;;;;0.20;0.15;;;32.90;35.80;33.70;101103.00;;;;4868314;28;93515;-66
2022/07/24 10:31:15;;;;;;;0.25;0.25;;;33.10;35.20;33.90;101103.00;;;;4869178;28;88131;-64
2022/07/24 10:33:46;;;;;;;0.20;0.20;;;33.20;35.40;34.10;101101.00;;;;4911165;28;88598;-66
2022/07/24 10:36:24;;;;;;;0.85;0.47;;;33.30;35.30;34.40;101110.00;;;;4931280;28;87739;-66
2022/07/24 10:39:00;;;;;;;0.47;0.45;;;33.50;35.00;34.60;101108.00;;;;4949856;28;89066;-66
2022/07/24 10:41:27;;;;;;;2.25;0.45;;;33.70;34.80;34.60;101107.00;;;;4930604;28;107155;-66
2022/07/24 10:44:17;;;;;;;0.13;0.13;;;33.90;33.90;34.70;101092.00;;;;4950876;28;88072;-65
2022/07/24 10:47:04;;;;;;;0.10;0.10;;;34.00;34.00;35.00;101101.00;;;;4940931;28;87989;-65